Time;durP1;ratioP1;P1;durP2;ratioP2;P2;SDS_P1;SDS_P2;PMS_P1;PMS_P2;Temp;Humidity;BMP_temperature;BMP_pressure;BME280_temperature;BME280_humidity;BME280_pressure;Samples;Min_cycle;Max_cycle;Signal;HPM_P1;HPM_P2
2021/06/01 00:01:53;;;;;;;2.72;0.50;;;15.10;97.70;;;14.61;61.01;100819.00;5047570;28;20068;-53
2021/06/01 00:04:19;;;;;;;1.83;0.65;;;15.10;97.70;;;14.65;60.35;100815.03;5047628;28;20456;-50
2021/06/01 00:06:46;;;;;;;2.50;0.50;;;15.20;97.00;;;14.70;59.42;100820.63;5047451;28;20033;-51
2021/06/01 00:09:16;;;;;;;2.92;0.57;;;15.20;95.90;;;14.73;58.74;100809.81;5037153;28;20035;-51
2021/06/01 00:11:43;;;;;;;0.70;0.40;;;15.20;95.30;;;14.78;58.30;100810.13;5027890;28;20494;-51
2021/06/01 00:14:10;;;;;;;1.33;0.43;;;15.20;94.90;;;14.80;58.15;100813.41;5027729;28;20069;-51
2021/06/01 00:16:37;;;;;;;1.17;0.50;;;15.30;94.50;;;14.77;57.96;100813.75;5027758;28;20029;-47
2021/06/01 00:19:06;;;;;;;3.05;0.60;;;15.30;94.30;;;14.70;58.49;100819.78;5027631;28;20037;-52
2021/06/01 00:21:34;;;;;;;2.13;1.00;;;15.20;94.50;;;14.62;59.55;100815.38;5039303;28;20041;-54
2021/06/01 00:24:00;;;;;;;0.82;0.50;;;15.20;95.60;;;14.62;58.78;100820.63;5029523;28;20040;-51
2021/06/01 00:26:26;;;;;;;0.65;0.40;;;15.10;94.90;;;14.62;58.48;100814.56;5047194;28;20040;-52
2021/06/01 00:28:52;;;;;;;2.45;0.82;;;15.10;94.50;;;14.65;58.70;100815.03;5032406;28;20037;-53
2021/06/01 00:31:19;;;;;;;2.30;1.13;;;15.10;94.50;;;14.58;59.29;100812.25;5051356;28;20396;-49
2021/06/01 00:33:45;;;;;;;2.63;0.82;;;15.10;95.00;;;14.54;59.92;100818.00;5050795;28;20052;-52
2021/06/01 00:36:11;;;;;;;0.85;0.47;;;15.00;95.50;;;14.59;59.39;100821.78;5051602;28;20048;-47
2021/06/01 00:38:37;;;;;;;2.67;0.80;;;15.10;95.10;;;14.58;59.21;100820.13;5051363;28;20032;-53
2021/06/01 00:41:05;;;;;;;2.65;0.60;;;15.10;95.20;;;14.52;59.67;100833.06;5051075;28;20481;-48
2021/06/01 00:43:32;;;;;;;1.20;0.73;;;15.00;95.50;;;14.40;60.32;100831.69;5051318;28;20040;-49
2021/06/01 00:45:58;;;;;;;6.57;0.90;;;15.00;96.00;;;14.06;62.67;100834.38;5050803;28;20025;-46
2021/06/01 00:48:24;;;;;;;1.77;0.70;;;14.70;98.00;;;13.99;63.45;100839.41;5050742;28;20037;-50
2021/06/01 00:50:50;;;;;;;2.30;1.00;;;14.60;98.80;;;13.98;63.95;100829.94;5050917;28;20051;-50
2021/06/01 00:53:16;;;;;;;2.00;0.90;;;14.60;99.80;;;13.95;63.90;100833.69;5050851;28;20045;-54
2021/06/01 00:55:42;;;;;;;2.67;1.05;;;14.50;99.90;;;13.92;64.57;100833.16;5050821;28;20032;-50
2021/06/01 00:58:11;;;;;;;2.67;0.93;;;14.50;99.90;;;13.79;65.38;100832.78;5038144;28;20037;-47
2021/06/01 01:03:08;;;;;;;3.40;0.93;;;14.30;99.90;;;13.77;65.81;100829.50;5030652;28;20049;-49
2021/06/01 01:05:38;;;;;;;1.70;1.05;;;14.30;99.90;;;13.77;65.48;100832.09;5018743;28;20434;-48
2021/06/01 01:11:08;;;;;;;3.15;0.90;;;14.40;99.90;;;13.88;65.16;100831.84;5032178;28;20044;-52
2021/06/01 01:13:54;;;;;;;3.55;1.27;;;14.40;99.90;;;13.90;65.40;100827.25;5037648;28;20190;-50
2021/06/01 01:16:26;;;;;;;2.50;0.82;;;14.40;99.90;;;13.93;64.57;100832.19;5018470;28;20047;-51
2021/06/01 01:19:11;;;;;;;2.30;0.90;;;14.40;99.90;;;13.97;64.19;100830.91;5031348;28;20033;-53
2021/06/01 01:21:49;;;;;;;1.70;0.88;;;14.50;99.90;;;13.99;63.83;100828.94;5049949;28;20029;-47
2021/06/01 01:25:03;;;;;;;3.35;0.70;;;14.50;99.90;;;13.97;64.56;100824.84;5033202;28;20067;-47
2021/06/01 01:27:47;;;;;;;1.48;0.70;;;14.50;99.90;;;13.93;64.00;100829.56;5044287;28;20064;-52
2021/06/01 01:30:16;;;;;;;1.10;0.73;;;14.50;99.90;;;13.94;63.98;100833.84;5046540;28;20713;-51
2021/06/01 01:33:15;;;;;;;1.77;0.50;;;14.50;99.90;;;13.89;64.47;100818.59;5049905;28;20048;-47
2021/06/01 01:35:43;;;;;;;1.10;0.70;;;14.40;99.90;;;13.89;63.70;100818.59;5049863;28;20102;-54
2021/06/01 01:38:10;;;;;;;3.60;0.60;;;14.40;99.90;;;13.94;63.08;100834.66;5049539;28;20036;-53
2021/06/01 01:40:38;;;;;;;5.05;0.60;;;14.40;99.90;;;13.94;63.20;100828.59;5031703;28;20033;-52
2021/06/01 01:43:09;;;;;;;4.57;0.50;;;14.50;99.90;;;13.94;63.30;100829.41;5049652;28;20037;-53
2021/06/01 01:45:39;;;;;;;0.90;0.43;;;14.40;99.90;;;13.91;63.35;100837.59;5011281;28;20064;-51
2021/06/01 01:51:11;;;;;;;0.95;0.60;;;14.40;99.90;;;13.90;63.69;100835.13;5041919;28;20168;-54
2021/06/01 01:53:56;;;;;;;1.58;0.50;;;14.40;99.90;;;13.86;64.45;100833.78;5031580;28;20041;-53
2021/06/01 01:56:29;;;;;;;1.48;0.60;;;14.30;99.90;;;13.83;64.01;100823.63;5049593;28;20098;-51
2021/06/01 01:58:56;;;;;;;1.15;0.68;;;14.30;99.90;;;13.84;63.97;100822.66;5015181;28;20044;-53
2021/06/01 02:01:23;;;;;;;2.80;0.60;;;14.30;99.90;;;13.86;63.96;100823.31;5031252;28;20514;-50
2021/06/01 02:03:52;;;;;;;1.98;0.70;;;14.40;99.90;;;13.84;64.04;100818.22;5027662;28;20369;-50
2021/06/01 02:06:18;;;;;;;0.90;0.57;;;14.40;99.90;;;13.82;64.33;100816.75;4995823;28;20041;-46
2021/06/01 02:08:44;;;;;;;1.00;0.68;;;14.30;99.90;;;13.83;64.50;100818.38;5048724;28;20044;-51
2021/06/01 02:11:11;;;;;;;1.30;0.80;;;14.30;99.90;;;13.81;64.51;100810.69;5048791;28;20033;-47
2021/06/01 02:13:59;;;;;;;3.35;0.60;;;14.30;99.90;;;13.83;65.03;100813.97;5048809;28;20783;-50
2021/06/01 02:16:26;;;;;;;2.15;0.80;;;14.30;99.90;;;13.85;64.46;100812.03;5027915;28;20033;-47
2021/06/01 02:18:52;;;;;;;1.67;0.65;;;14.30;99.90;;;13.89;63.73;100815.16;5037827;28;20469;-48
2021/06/01 02:22:39;;;;;;;1.17;0.55;;;14.40;99.90;;;13.90;63.33;100828.09;5030941;28;20480;-46
2021/06/01 02:24:29;;;;;;;0.75;0.55;;;14.40;99.90;;;13.90;63.34;100820.22;5039119;28;20056;-48
2021/06/01 02:27:07;;;;;;;1.63;0.60;;;14.40;99.90;;;13.89;63.36;100815.97;5031039;28;20036;-50
2021/06/01 02:30:03;;;;;;;2.22;0.98;;;14.40;99.90;;;13.90;63.48;100819.41;5048946;28;20826;-46
2021/06/01 02:32:39;;;;;;;1.83;0.60;;;14.40;99.90;;;13.85;63.63;100819.88;5042966;28;20087;-54
2021/06/01 02:35:10;;;;;;;1.63;0.70;;;14.40;99.90;;;13.79;63.97;100822.28;5047889;28;20438;-52
2021/06/01 02:37:46;;;;;;;2.95;0.70;;;14.30;99.90;;;13.57;66.67;100823.69;5029033;28;20029;-49
2021/06/01 02:40:15;;;;;;;2.75;0.70;;;14.20;99.90;;;13.34;66.95;100831.22;5038292;28;20036;-47
2021/06/01 02:42:44;;;;;;;1.50;0.73;;;14.00;99.90;;;13.16;68.02;100825.22;5048901;28;20595;-51
2021/06/01 02:45:14;;;;;;;1.70;0.70;;;13.80;99.90;;;13.11;68.66;100822.19;5048607;28;20037;-48
2021/06/01 02:47:41;;;;;;;2.75;1.00;;;13.70;99.90;;;13.08;68.43;100823.31;5031025;28;20128;-49
2021/06/01 02:50:13;;;;;;;1.80;0.93;;;13.70;99.90;;;13.03;68.10;100822.94;5048240;28;20563;-49
2021/06/01 02:52:42;;;;;;;1.98;0.60;;;13.60;99.90;;;13.06;68.17;100819.22;5019776;28;20449;-48
2021/06/01 02:55:15;;;;;;;1.75;0.63;;;13.50;99.90;;;13.14;67.37;100822.72;5028896;28;20033;-49
2021/06/01 02:57:42;;;;;;;2.38;0.80;;;13.60;99.90;;;13.13;67.09;100820.25;5011170;28;20068;-47
2021/06/01 03:00:18;;;;;;;3.15;0.82;;;13.60;99.90;;;13.09;67.13;100822.34;5028819;28;20159;-51
2021/06/01 03:02:44;;;;;;;;;;;13.60;99.90;;;13.01;68.99;100822.28;5029358;28;20033;-52
2021/06/01 03:05:11;;;;;;;2.65;0.90;;;13.50;99.90;;;12.96;67.89;100827.97;5010680;28;19992;-48
2021/06/01 03:07:41;;;;;;;1.75;0.80;;;13.50;99.90;;;12.92;68.68;100818.78;5028620;28;20048;-50
2021/06/01 03:10:12;;;;;;;5.53;0.90;;;13.40;99.90;;;12.90;68.67;100819.91;5028519;28;20056;-46
2021/06/01 03:15:08;;;;;;;2.55;0.70;;;13.40;99.90;;;12.89;68.11;100824.31;5028769;28;20034;-47
2021/06/01 03:17:34;;;;;;;2.15;0.93;;;13.40;99.90;;;12.88;67.91;100820.03;5028587;28;20036;-46
2021/06/01 03:20:01;;;;;;;2.85;1.02;;;13.40;99.90;;;12.89;67.84;100826.91;5028774;28;20026;-48
2021/06/01 03:22:27;;;;;;;3.60;0.80;;;13.40;99.90;;;12.88;67.94;100821.84;5027778;28;20053;-51
2021/06/01 03:24:53;;;;;;;5.45;0.70;;;13.40;99.90;;;12.88;67.85;100824.44;5028175;28;20041;-48
2021/06/01 03:27:19;;;;;;;2.55;0.73;;;13.40;99.90;;;12.90;67.69;100825.13;5028205;28;20044;-47
2021/06/01 03:29:45;;;;;;;1.77;0.68;;;13.40;99.90;;;12.92;68.07;100829.22;5044219;28;20037;-47
2021/06/01 03:32:11;;;;;;;2.75;0.70;;;13.40;99.90;;;12.93;67.98;100830.06;5048340;28;20037;-47
2021/06/01 03:34:37;;;;;;;1.92;0.90;;;13.50;99.90;;;12.90;68.07;100831.19;5029836;28;20130;-47
2021/06/01 03:37:03;;;;;;;3.05;0.68;;;13.40;99.90;;;12.89;68.55;100834.75;5047748;28;20025;-46
2021/06/01 03:39:31;;;;;;;2.92;0.77;;;13.40;99.90;;;12.86;68.57;100832.44;5047507;28;20036;-47
2021/06/01 03:41:58;;;;;;;2.88;1.17;;;13.40;99.90;;;12.82;69.10;100841.56;5029735;28;20029;-48
2021/06/01 03:44:24;;;;;;;1.20;0.73;;;13.40;99.90;;;12.78;68.97;100842.84;5045801;28;20480;-49
2021/06/01 03:46:50;;;;;;;1.67;0.80;;;13.40;99.90;;;12.76;69.19;100834.31;5028120;28;20077;-52
2021/06/01 03:49:16;;;;;;;3.97;0.70;;;13.30;99.90;;;12.72;69.49;100838.22;5028138;28;20029;-46
2021/06/01 03:51:42;;;;;;;1.17;0.60;;;13.30;99.90;;;12.67;69.70;100837.03;5009807;28;20566;-49
2021/06/01 03:54:08;;;;;;;1.58;0.57;;;13.20;99.90;;;12.63;69.91;100839.13;5027890;28;20040;-50
2021/06/01 03:56:37;;;;;;;2.40;1.05;;;13.20;99.90;;;12.63;70.18;100842.56;5012216;28;20124;-47
2021/06/01 03:59:06;;;;;;;1.38;0.68;;;13.20;99.90;;;12.64;70.00;100846.00;5047847;28;20384;-46
2021/06/01 04:01:32;;;;;;;3.35;0.88;;;13.20;99.90;;;12.64;70.09;100843.38;5048373;28;20069;-45
2021/06/01 04:03:58;;;;;;;2.22;1.10;;;13.20;99.90;;;12.62;69.95;100845.31;5051966;28;20061;-46
2021/06/01 04:06:24;;;;;;;1.92;0.82;;;13.20;99.90;;;12.68;69.85;100846.50;5051560;28;20036;-52
2021/06/01 04:08:50;;;;;;;1.10;0.60;;;13.20;99.90;;;12.70;69.95;100844.56;5051849;28;20120;-49
2021/06/01 04:11:16;;;;;;;2.35;0.98;;;13.30;99.90;;;12.74;69.91;100846.75;5051699;28;20078;-51
2021/06/01 04:13:42;;;;;;;2.47;0.80;;;13.30;99.90;;;12.81;69.63;100853.00;5052227;28;20076;-46
2021/06/01 04:16:08;;;;;;;2.25;1.00;;;13.40;99.90;;;12.82;69.30;100852.03;5051678;28;20044;-48
2021/06/01 04:18:34;;;;;;;2.28;0.80;;;13.40;99.90;;;12.86;69.37;100855.16;5051602;28;20033;-48
2021/06/01 04:21:00;;;;;;;2.17;0.70;;;13.40;99.90;;;12.90;69.19;100854.72;5051631;28;20116;-49
2021/06/01 04:23:26;;;;;;;4.22;0.98;;;13.50;99.90;;;12.96;68.90;100850.69;5051559;28;20033;-52
2021/06/01 04:25:53;;;;;;;4.20;0.77;;;13.60;99.90;;;13.05;68.66;100848.97;5051666;28;20123;-50
2021/06/01 04:28:19;;;;;;;1.45;0.80;;;13.70;99.90;;;13.28;68.06;100857.97;5051566;28;20062;-48
2021/06/01 04:30:45;;;;;;;1.25;0.85;;;13.80;99.90;;;14.75;63.74;100852.41;5051525;28;20033;-46
2021/06/01 04:33:12;;;;;;;2.95;0.90;;;15.20;99.90;;;16.27;59.51;100855.94;5048863;28;20033;-46
2021/06/01 04:35:39;;;;;;;4.07;0.88;;;17.10;98.50;;;16.78;57.82;100854.50;5031056;28;20075;-51
2021/06/01 04:38:05;;;;;;;2.00;0.90;;;18.30;93.40;;;16.78;57.40;100853.69;5031245;28;20037;-50
2021/06/01 04:40:32;;;;;;;2.70;0.95;;;18.50;91.40;;;17.22;56.20;100864.38;5031510;28;20037;-53
2021/06/01 04:42:58;;;;;;;2.00;1.02;;;19.00;89.00;;;17.42;55.59;100857.59;5027990;28;20717;-51
2021/06/01 04:45:24;;;;;;;3.95;1.92;;;19.30;85.70;;;16.79;57.34;100856.16;5050577;28;20532;-53
2021/06/01 04:47:50;;;;;;;4.65;0.77;;;18.70;86.60;;;17.04;56.92;100848.06;5050334;28;20040;-51
2021/06/01 04:50:16;;;;;;;4.25;0.98;;;18.50;88.20;;;17.04;56.52;100858.59;5032804;28;20099;-51
2021/06/01 04:52:42;;;;;;;3.97;0.70;;;18.70;85.00;;;15.99;58.94;100852.97;5032903;28;20110;-54
2021/06/01 04:55:10;;;;;;;4.57;0.65;;;17.70;88.30;;;15.81;60.20;100855.81;5050243;28;20037;-52
2021/06/01 04:57:40;;;;;;;1.10;0.77;;;17.10;91.70;;;17.50;55.58;100844.31;5041215;28;20040;-54
2021/06/01 05:00:09;;;;;;;1.60;0.70;;;18.80;87.40;;;18.17;53.13;100846.88;5050332;28;20033;-52
2021/06/01 05:02:35;;;;;;;2.65;0.70;;;20.20;78.40;;;17.72;53.27;100852.38;5048600;28;20040;-53
2021/06/01 05:05:02;;;;;;;6.03;0.50;;;19.70;77.20;;;18.16;52.33;100845.25;5030469;28;20254;-54
2021/06/01 05:07:27;;;;;;;0.95;0.60;;;20.10;76.00;;;18.22;52.43;100855.06;5029535;28;20058;-49
2021/06/01 05:10:00;;;;;;;3.72;0.63;;;20.20;75.50;;;18.35;51.79;100832.47;5030378;28;20092;-57
2021/06/01 05:12:30;;;;;;;3.08;0.63;;;20.10;75.00;;;18.32;52.18;100840.75;5012283;28;20329;-57
2021/06/01 05:14:56;;;;;;;0.85;0.50;;;20.50;73.50;;;19.49;49.20;100836.72;5012151;28;20064;-50
2021/06/01 05:17:24;;;;;;;3.00;0.60;;;22.00;68.00;;;19.27;49.71;100830.72;5030088;28;20432;-55
2021/06/01 05:19:50;;;;;;;3.13;0.75;;;21.70;68.40;;;18.64;51.24;100832.41;5030706;28;20054;-53
2021/06/01 05:22:18;;;;;;;3.92;0.85;;;20.90;69.40;;;17.57;53.68;100832.06;5030596;28;20033;-55
2021/06/01 05:24:45;;;;;;;2.47;0.70;;;19.50;73.30;;;16.63;56.22;100834.34;5030634;28;20582;-52
2021/06/01 05:27:12;;;;;;;2.30;0.60;;;18.30;77.20;;;16.58;55.92;100829.63;5030223;28;20037;-52
2021/06/01 05:29:45;;;;;;;1.60;0.50;;;17.90;79.20;;;16.56;55.96;100835.03;5012121;28;20038;-55
2021/06/01 05:35:06;;;;;;;1.85;0.70;;;19.60;76.30;;;20.16;47.12;100831.63;5013827;28;20052;-52
2021/06/01 05:37:35;;;;;;;2.63;0.63;;;22.30;66.50;;;19.28;49.54;100819.13;5028566;28;20069;-52
2021/06/01 05:40:03;;;;;;;4.40;0.60;;;21.60;67.20;;;18.36;51.55;100829.66;5012511;28;20121;-55
2021/06/01 05:42:29;;;;;;;5.75;0.98;;;20.50;69.70;;;17.92;52.63;100829.75;5030152;28;20364;-54
2021/06/01 05:44:55;;;;;;;4.75;0.82;;;19.60;72.60;;;18.05;52.52;100824.63;5030113;28;20076;-50
2021/06/01 05:47:21;;;;;;;3.85;0.70;;;19.40;74.10;;;17.72;53.03;100823.38;5029969;28;20152;-50
2021/06/01 05:49:47;;;;;;;5.65;0.50;;;19.20;73.90;;;17.13;53.88;100826.75;5029913;28;20033;-53
2021/06/01 05:52:13;;;;;;;4.93;0.70;;;18.50;75.50;;;16.89;54.74;100827.78;5030118;28;20037;-51
2021/06/01 05:54:39;;;;;;;4.30;0.70;;;18.10;77.40;;;16.74;55.32;100832.16;5029703;28;20516;-47
2021/06/01 05:57:06;;;;;;;2.42;0.47;;;17.80;79.50;;;17.44;53.55;100829.25;5029853;28;20177;-54
2021/06/01 05:59:33;;;;;;;3.13;0.60;;;18.80;76.00;;;17.67;53.11;100825.75;5029624;28;20037;-54
2021/06/01 06:01:59;;;;;;;4.25;0.68;;;18.80;77.60;;;20.05;48.20;100820.78;5030050;28;20084;-54
2021/06/01 06:04:25;;;;;;;0.88;0.50;;;21.30;71.20;;;22.08;43.67;100818.34;5011929;28;20033;-53
2021/06/01 06:06:52;;;;;;;3.60;0.75;;;24.40;61.60;;;21.76;43.93;100817.41;5011860;28;20045;-52
2021/06/01 06:09:18;;;;;;;2.92;0.60;;;24.80;58.30;;;20.62;45.37;100811.59;5029892;28;20452;-51
2021/06/01 06:11:44;;;;;;;7.68;0.50;;;23.40;58.60;;;20.80;45.81;100807.31;5011472;28;20054;-54
2021/06/01 06:14:09;;;;;;;4.15;0.50;;;22.80;61.60;;;20.63;46.49;100798.16;5029312;28;20087;-52
2021/06/01 06:16:50;;;;;;;2.85;0.50;;;22.60;62.10;;;19.47;47.80;100802.56;5029267;28;20033;-50
2021/06/01 06:19:16;;;;;;;3.28;0.60;;;21.80;62.50;;;20.69;46.45;100807.13;5029114;28;20049;-51
2021/06/01 06:21:42;;;;;;;4.13;0.50;;;22.80;61.60;;;21.79;44.01;100795.75;5029160;28;20409;-54
2021/06/01 06:24:08;;;;;;;1.88;0.40;;;24.10;58.30;;;22.04;43.28;100796.72;5029464;28;20037;-52
2021/06/01 06:26:34;;;;;;;5.10;0.57;;;24.60;57.30;;;22.66;42.06;100795.13;5028396;28;20042;-53
2021/06/01 06:29:00;;;;;;;1.17;0.40;;;25.50;54.70;;;23.14;40.87;100797.19;5029286;28;20041;-55
2021/06/01 06:31:26;;;;;;;2.60;0.50;;;25.90;54.10;;;23.87;39.73;100797.22;5029183;28;20029;-54
2021/06/01 06:33:52;;;;;;;3.67;0.60;;;26.90;52.10;;;23.95;39.71;100794.25;5010950;28;20049;-54
2021/06/01 06:36:18;;;;;;;2.78;0.90;;;27.00;51.60;;;22.67;41.89;100799.41;5028948;28;20034;-50
2021/06/01 06:38:47;;;;;;;1.42;0.40;;;25.30;54.10;;;23.48;40.69;100791.31;5029171;28;20030;-55
2021/06/01 06:41:16;;;;;;;3.75;0.52;;;25.70;53.80;;;21.73;43.91;100804.59;5011066;28;20119;-55
2021/06/01 06:43:53;;;;;;;2.25;0.80;;;24.20;56.30;;;20.95;45.71;100796.53;5010883;28;20029;-52
2021/06/01 06:46:28;;;;;;;1.25;0.40;;;22.70;60.20;;;20.21;47.83;100801.91;5028794;28;20182;-52
2021/06/01 06:48:56;;;;;;;4.85;0.45;;;21.90;62.20;;;19.74;47.91;100810.69;5011090;28;20025;-52
2021/06/01 06:51:23;;;;;;;2.30;0.60;;;21.10;63.40;;;19.75;48.34;100807.03;5011065;28;20065;-54
2021/06/01 06:56:16;;;;;;;4.50;0.50;;;21.00;64.50;;;19.99;47.44;100803.88;5010948;28;20046;-49
2021/06/01 06:58:42;;;;;;;2.25;0.55;;;20.90;65.00;;;19.78;48.21;100807.47;5028238;28;20582;-52
2021/06/01 07:01:12;;;;;;;3.28;0.47;;;20.70;65.60;;;19.85;48.08;100807.47;5028627;28;20037;-48
2021/06/01 07:03:38;;;;;;;2.63;1.00;;;20.80;66.00;;;20.80;45.65;100794.06;5028353;28;20034;-50
2021/06/01 07:06:06;;;;;;;4.35;0.55;;;21.80;64.00;;;20.45;46.11;100804.03;5028315;28;20503;-53
2021/06/01 07:08:33;;;;;;;1.60;0.52;;;22.20;61.50;;;21.56;44.49;100808.72;5028372;28;20480;-56
2021/06/01 07:10:59;;;;;;;4.75;0.98;;;23.10;60.60;;;22.83;41.94;100795.41;5028510;28;20133;-52
2021/06/01 07:13:41;;;;;;;3.10;0.55;;;24.50;58.10;;;21.95;43.44;100803.25;5027915;28;20042;-46
2021/06/01 07:16:07;;;;;;;1.90;0.60;;;23.90;58.50;;;21.04;45.84;100799.78;4995467;28;20510;-50
2021/06/01 07:18:38;;;;;;;1.50;0.50;;;22.80;60.70;;;21.18;45.59;100794.28;5028279;28;20039;-53
2021/06/01 07:21:06;;;;;;;2.50;0.50;;;22.30;62.60;;;21.14;45.94;100794.91;5010154;28;20033;-47
2021/06/01 07:23:33;;;;;;;2.97;0.90;;;21.90;64.00;;;21.72;44.62;100797.66;5028492;28;20055;-49
2021/06/01 07:25:59;;;;;;;2.85;0.60;;;22.10;64.10;;;21.47;45.23;100794.84;5028151;28;20029;-55
2021/06/01 07:28:26;;;;;;;6.80;0.60;;;22.20;63.20;;;21.47;45.23;100794.84;5027725;28;20044;-51
2021/06/01 07:30:52;;;;;;;1.60;0.50;;;22.10;63.70;;;21.38;45.62;100791.59;5028319;28;20400;-50
2021/06/01 07:33:19;;;;;;;4.15;0.50;;;22.40;63.20;;;21.34;44.77;100795.69;5027883;28;20030;-52
2021/06/01 07:35:44;;;;;;;2.67;0.57;;;22.40;62.30;;;21.59;44.35;100798.50;5027645;28;20042;-50
2021/06/01 07:38:12;;;;;;;3.10;0.47;;;22.50;62.10;;;22.04;43.24;100794.06;5027428;28;20136;-55
2021/06/01 07:40:40;;;;;;;10.05;0.60;;;22.70;61.90;;;22.17;42.83;100791.34;5028194;28;20164;-56
2021/06/01 07:43:06;;;;;;;2.30;0.60;;;22.80;61.40;;;22.55;41.53;100790.50;5027880;28;20040;-52
2021/06/01 07:45:33;;;;;;;5.07;0.60;;;22.90;60.70;;;23.32;40.03;100780.44;5027797;28;20084;-52
2021/06/01 07:48:00;;;;;;;4.10;0.47;;;23.40;59.70;;;23.45;38.65;100782.97;5027741;28;20496;-54
2021/06/01 07:50:26;;;;;;;0.90;0.40;;;23.80;57.50;;;23.83;38.09;100785.41;5027948;28;20099;-57
2021/06/01 07:52:53;;;;;;;1.67;0.40;;;24.20;56.70;;;23.48;39.06;100778.03;5027548;28;20037;-53
2021/06/01 07:55:19;;;;;;;1.13;0.50;;;24.10;56.60;;;23.20;39.00;100784.84;5027928;28;20048;-50
2021/06/01 07:57:45;;;;;;;2.30;0.57;;;24.10;56.30;;;22.45;40.89;100784.84;5027849;28;20053;-53
2021/06/01 08:00:12;;;;;;;1.10;0.40;;;23.60;56.70;;;22.29;40.55;100778.19;5027801;28;20366;-47
2021/06/01 08:02:40;;;;;;;1.33;0.40;;;23.40;56.50;;;22.86;39.72;100772.91;5027964;28;20067;-52
2021/06/01 08:05:07;;;;;;;6.78;0.50;;;23.60;56.40;;;22.57;39.64;100772.50;5010066;28;20048;-55
2021/06/01 08:07:34;;;;;;;2.08;0.40;;;23.20;56.50;;;23.29;38.53;100776.38;5016089;28;20538;-54
2021/06/01 08:10:05;;;;;;;7.93;0.40;;;23.60;56.40;;;23.61;37.49;100773.63;5009460;28;20038;-55
2021/06/01 08:12:31;;;;;;;1.85;0.30;;;23.90;55.70;;;23.52;37.59;100770.41;5010342;28;20223;-52
2021/06/01 08:14:58;;;;;;;8.65;0.50;;;24.00;55.70;;;23.98;36.86;100774.38;5027746;28;20334;-50
2021/06/01 08:17:24;;;;;;;3.42;0.50;;;24.30;54.40;;;24.34;36.16;100771.63;5026127;28;20044;-55
2021/06/01 08:19:52;;;;;;;0.90;0.38;;;24.70;53.70;;;25.09;34.96;100769.19;5025941;28;20080;-54
2021/06/01 08:24:44;;;;;;;1.98;0.50;;;25.50;51.80;;;23.69;37.33;100768.78;5027406;28;20501;-55
2021/06/01 08:27:10;;;;;;;1.08;0.35;;;24.80;52.60;;;23.97;37.07;100765.59;5027212;28;20533;-53
2021/06/01 08:29:36;;;;;;;1.20;0.30;;;24.60;53.60;;;24.54;35.88;100758.03;5027556;28;20029;-57
2021/06/01 08:32:04;;;;;;;0.95;0.30;;;25.00;52.80;;;24.89;34.65;100757.22;5035139;28;20132;-54
2021/06/01 08:34:30;;;;;;;1.77;0.40;;;25.50;51.50;;;24.74;35.69;100763.81;5027273;28;20439;-52
2021/06/01 08:36:56;;;;;;;0.63;0.40;;;25.30;52.40;;;25.18;34.46;100756.31;5042651;28;20037;-51
2021/06/01 08:39:26;;;;;;;1.80;0.40;;;25.60;51.50;;;25.11;34.49;100751.09;5045323;28;20044;-53
2021/06/01 08:41:54;;;;;;;2.15;0.50;;;25.60;51.60;;;25.40;34.73;100756.53;5028514;28;20411;-49
2021/06/01 08:44:20;;;;;;;0.70;0.30;;;25.70;52.10;;;25.26;33.78;100747.16;5047116;28;20218;-48
2021/06/01 08:46:49;;;;;;;4.90;0.55;;;25.90;49.10;;;25.26;33.92;100753.28;5047225;28;20036;-51
2021/06/01 08:49:20;;;;;;;1.27;0.30;;;25.60;50.80;;;25.67;32.91;100757.63;5014587;28;20033;-47
2021/06/01 08:51:47;;;;;;;1.92;0.38;;;26.10;49.80;;;26.14;32.20;100754.75;5050773;28;20032;-45
2021/06/01 08:54:14;;;;;;;4.00;0.40;;;26.40;49.40;;;26.25;31.66;100753.91;5050691;28;20039;-52
2021/06/01 08:56:41;;;;;;;1.95;0.40;;;26.60;48.50;;;26.07;31.74;100744.22;5050391;28;20036;-52
2021/06/01 08:59:09;;;;;;;4.22;0.57;;;26.60;48.40;;;26.48;31.65;100744.94;5049675;28;20032;-53
2021/06/01 09:01:35;;;;;;;3.53;0.40;;;26.80;48.60;;;26.58;31.02;100747.78;5047660;28;20435;-46
2021/06/01 09:04:10;;;;;;;1.85;0.43;;;27.10;47.70;;;26.54;30.65;100749.31;5020554;28;20029;-53
2021/06/01 09:06:43;;;;;;;3.92;0.60;;;27.20;47.00;;;26.22;31.84;100750.91;5024938;28;20400;-48
2021/06/01 09:10:00;;;;;;;1.35;0.50;;;27.00;47.20;;;25.96;31.19;100744.31;5032426;28;20033;-43
2021/06/01 09:22:47;;;;;;;0.68;0.57;;;26.40;48.20;;;25.58;33.18;100750.19;5047715;28;20037;-48
2021/06/01 09:25:22;;;;;;;1.10;0.30;;;26.50;48.70;;;25.98;32.87;100737.69;5048918;28;20052;-52
2021/06/01 09:27:52;;;;;;;1.20;0.55;;;26.60;48.90;;;26.03;32.77;100739.59;5049625;28;20690;-53
2021/06/01 09:31:01;;;;;;;2.97;0.60;;;26.70;48.40;;;25.65;32.83;100737.56;5050080;28;20036;-51
2021/06/01 09:33:32;;;;;;;3.00;0.63;;;26.50;48.20;;;25.43;34.08;100732.06;5027228;28;20131;-49
2021/06/01 09:36:01;;;;;;;1.65;0.38;;;26.20;49.40;;;25.08;34.63;100724.91;5028335;28;20469;-47
2021/06/01 09:38:43;;;;;;;1.10;0.60;;;25.90;49.60;;;25.01;34.51;100720.75;5027582;28;20034;-48
2021/06/01 09:41:16;;;;;;;1.92;0.93;;;25.70;49.50;;;25.29;33.83;100726.16;5044026;28;20486;-55
2021/06/01 09:43:52;;;;;;;1.10;0.47;;;25.70;49.70;;;26.52;31.70;100719.38;5047306;28;20072;-49
2021/06/01 09:46:45;;;;;;;1.33;0.60;;;26.60;48.60;;;26.40;32.65;100716.00;5045798;28;20045;-50
2021/06/01 09:49:14;;;;;;;2.55;0.93;;;26.70;49.20;;;27.65;31.29;100714.50;5050140;28;20029;-51
2021/06/01 09:51:56;;;;;;;2.88;0.68;;;27.60;48.70;;;26.83;32.65;100711.81;5049082;28;20133;-54
2021/06/01 09:54:37;;;;;;;1.33;0.70;;;27.60;48.40;;;26.00;33.08;100713.38;5029975;28;20090;-56
2021/06/01 09:57:27;;;;;;;2.50;0.60;;;26.80;48.40;;;26.08;32.77;100718.34;5036755;28;20037;-46
2021/06/01 10:00:16;;;;;;;2.83;0.70;;;26.60;48.60;;;26.60;32.53;100710.13;5028809;28;21571;-47
2021/06/01 10:02:49;;;;;;;2.10;0.60;;;26.80;49.10;;;27.09;32.13;100703.09;5025661;28;20144;-50
2021/06/01 10:05:23;;;;;;;1.35;0.60;;;27.40;48.80;;;26.96;32.29;100704.28;5029352;28;20036;-53
2021/06/01 10:07:52;;;;;;;4.18;0.50;;;27.50;48.40;;;27.19;30.93;100703.25;5048189;28;20452;-47
2021/06/01 10:10:30;;;;;;;1.80;0.40;;;27.60;47.70;;;26.87;31.08;100697.72;5044354;28;20090;-47
2021/06/01 10:13:02;;;;;;;2.00;0.50;;;27.50;47.20;;;27.26;30.70;100692.38;5048452;28;20106;-51
2021/06/01 10:15:31;;;;;;;1.42;0.40;;;27.50;47.20;;;27.32;30.83;100686.81;5046630;28;20102;-55
2021/06/01 10:17:58;;;;;;;1.10;0.50;;;27.80;47.20;;;26.73;31.52;100689.22;5047657;28;20047;-51
2021/06/01 10:20:31;;;;;;;4.97;0.50;;;27.30;47.20;;;26.93;31.04;100688.72;5048258;28;20425;-49
2021/06/01 10:22:58;;;;;;;1.13;0.40;;;27.40;47.10;;;26.95;30.88;100691.94;5011651;28;20440;-46
2021/06/01 10:25:25;;;;;;;1.45;0.43;;;27.40;46.90;;;27.15;30.77;100686.06;5044194;28;20071;-49
2021/06/01 10:27:52;;;;;;;5.70;0.80;;;27.50;46.90;;;26.10;31.23;100685.00;5049448;28;20033;-50
2021/06/01 10:30:19;;;;;;;2.15;0.50;;;27.00;46.20;;;26.06;31.22;100693.75;5026853;28;20037;-50
2021/06/01 10:32:57;;;;;;;4.88;0.47;;;26.70;46.40;;;26.74;30.77;100684.69;5046433;28;20502;-52
2021/06/01 10:35:25;;;;;;;0.55;0.40;;;27.00;47.00;;;27.21;30.87;100687.75;5024987;28;20041;-52
2021/06/01 10:52:00;;;;;;;3.00;0.50;;;27.10;47.60;;;26.15;32.11;100678.94;5042751;28;20037;-45
2021/06/01 10:54:43;;;;;;;1.23;0.60;;;27.00;47.30;;;26.20;30.92;100668.34;5024699;28;20156;-46
2021/06/01 10:57:12;;;;;;;1.15;0.55;;;26.70;46.10;;;25.86;32.71;100664.03;5019271;28;20167;-43
2021/06/01 11:02:28;;;;;;;1.70;0.60;;;26.80;47.60;;;26.47;31.31;100665.06;5048338;28;20041;-50
2021/06/01 11:05:12;;;;;;;3.42;0.65;;;26.90;47.00;;;25.97;31.96;100658.66;5048038;28;20029;-48
2021/06/01 11:07:59;;;;;;;0.63;0.50;;;26.50;47.60;;;25.52;32.18;100657.81;5045214;28;20729;-48
2021/06/01 11:10:41;;;;;;;2.25;0.60;;;26.20;47.10;;;25.88;32.21;100660.09;5023070;28;20037;-48